x

Buoy A01 - Mass. Bay/stellwagen (44029) Wave Buoy

11:04 - Wed 31st Aug 2016 All times are EDT. -4 hours from GMT.

  • Sig Wave height 2.0ft
  • Peak Period 10s
  • Wind
    7mph
  • Sea Temp 66°f
  • Luft Temp 68°f
  • Sea Pressure 1014mb
  • Buoy A01 - Mass. Bay/stellwagen
  • Buoy A01 - Mass. Bay/stellwagen

More Historic Weather Station data

Upgrade to MSW Pro to gain access to the past 30 days of data for over 8000 Wavebouys and Weather Stations around the globe.

Join Pro

Comparision Forecast

View Surf forecast
   
Mi 08/31 11:04 2ft 10s 7
mph
1014mb 66f 68f
10:04 2ft 10s 9 11 mph 1014.1mb 66f 68f
9:04 1.6ft 10s 11 13 mph 1014mb 66f 67f
8:04 1.6ft 11s 11 13 mph 1014.5mb 66f 67f
7:04 2.5ft 11s 11 13 mph 1014.6mb 66f 67f
6:04 2ft 11s 9 11 mph 1014.8mb 66f 67f
5:04 2ft 8s 9 11 mph 1015.1mb 66f 67f
4:04 2.5ft 11s 11
mph
1015.4mb 66f 67f
3:04 3.5ft 11s 13 16 mph 1015.8mb 66f 67f
2:04 3.5ft 9s 16 18 mph 1015.6mb 66f 68f
1:04 3.5ft 10s 13 16 mph 1015.7mb 66f 68f
12:04 3.5ft 11s 9 11 mph 1016.3mb 67f 68f
Di 08/30 11:04 3ft 11s 9 11 mph 1016.7mb 68f 69f
10:04 2ft 11s 11 13 mph 1016.2mb 68f 70f
9:04 3ft 12s 13 16 mph 1016.4mb 68f 70f
8:04 2ft 13s 9 11 mph 1016.7mb 68f 69f
7:04 2.5ft 12s 11 13 mph 1016.6mb 68f 69f
6:04 2.5ft 12s 11 13 mph 1016.8mb 68f 69f
5:04 2ft 11s 13
mph
1017.3mb 68f 69f
4:04 2.5ft 10s 13 16 mph 1017.6mb 68f 69f
3:04 2.5ft 11s 11 13 mph 1018.3mb 68f 69f
2:04 2.5ft 12s 11 13 mph 1019mb 68f 69f
1:04 2.5ft 12s 7 9 mph 1019.8mb 68f 69f
12:04 3.5ft 11s 4 7 mph 1020.1mb 68f 68f
11:04 2.5ft 11s 4
mph
1020.7mb 67f 67f
10:04 2.5ft 12s 2 4 mph 1021mb 67f 67f
9:04 2.5ft 12s 7
mph
1021.3mb 67f 64f
8:04  -   -  7
mph
1020.8mb 66f 65f
7:04 2ft 13s 2
mph
1020.6mb 66f 65f
6:04 2ft 12s 7 9 mph 1020.6mb 66f 65f
5:04 2ft 12s 9 11 mph 1020.5mb 66f 65f
4:04 2.5ft 12s 7 9 mph 1020.5mb 66f 65f
3:04 2ft 12s 9 11 mph 1020.9mb 66f 66f
2:04 2.5ft 12s 9 11 mph 1020.2mb 66f 67f
1:04 2ft 11s 11
mph
1020mb 67f 67f
12:04 2ft 12s 7 9 mph 1020mb 67f 67f
Mo 08/29 11:04 2ft 12s 7 9 mph 1019.9mb 67f 68f
10:04 2.5ft 12s 7 9 mph 1019.8mb 67f 68f
9:04 2ft 13s 7 9 mph 1019.1mb 67f 69f
8:04 2ft 13s 16 18 mph 1018.6mb 67f 72f
7:04 2ft 13s 13
mph
1017.9mb 67f 72f
6:04 2ft 13s 13
mph
1017.1mb 67f 73f
5:04 2ft 13s 13
mph
1016.9mb 67f 72f
4:04 2.5ft 3s 11 13 mph 1016.5mb 67f 71f
3:04 1.6ft 2s 18 20 mph 1016.3mb 67f 75f
2:04 2ft 7s 18 20 mph 1016mb 67f 75f
1:04 2ft 13s 9 11 mph 1015.6mb 67f 74f
12:04 2.5ft 13s 9
mph
1015.4mb 67f 71f
11:04 2.5ft 13s 9
mph
1015.8mb 67f 69f
10:04 2.5ft 3s 9 11 mph 1016.2mb 66f 69f
9:04 2.5ft 3s 13
mph
1016.4mb 66f 69f
8:04 2.5ft 4s 13 16 mph 1016.8mb 67f 68f
7:04 2ft 3s 13 16 mph 1016.8mb 67f 68f
6:04 2ft 4s 13 18 mph 1017mb 67f 69f
5:04 2ft 4s 13 16 mph 1017.7mb 67f 68f
4:04 2.5ft 4s 16 18 mph 1018.2mb 67f 68f
3:04 3ft 4s 13 16 mph 1018.9mb 68f 68f
2:04 3.5ft 4s 13 16 mph 1019mb 68f 68f
1:04 3.5ft 4s 13 16 mph 1019.6mb 68f 68f
12:04 3.5ft 4s 16 18 mph 1020mb 68f 69f
So 08/28 11:04 3.5ft 4s 16 18 mph 1020mb 68f 69f
10:04 3.5ft 4s 16 18 mph 1020.4mb 67f 69f
9:04 2.5ft 3s 18 20 mph 1020.5mb 68f 70f
8:04 2.5ft 3s 16 18 mph 1020.8mb 68f 70f
7:04 2.5ft 3s 16 18 mph 1020.9mb 68f 69f
6:04 1.3ft 3s 18 20 mph 1021.3mb 68f 70f
5:04 1.3ft 3s 16 20 mph 1021.8mb 69f 70f
4:04 2.5ft 11s 16 20 mph 1022.5mb 69f 70f
3:04 1ft 8s 11 16 mph 1023.4mb 69f 71f
2:04 1ft 8s 11 13 mph 1024.1mb 70f 71f
1:04  -   -  7 9 mph 1024.5mb 70f 71f
12:04 1ft 8s 4 7 mph 1025.2mb 69f 71f
11:04 1ft 8s 2 4 mph 1025.5mb 69f 71f
10:04 1ft 8s 4
mph
1025.6mb 69f 70f
9:04 1ft 8s 4
mph
1025.5mb 68f 70f
8:04 1ft 8s 2 4 mph 1025.4mb 68f 70f
7:04 1ft 8s 2
mph
1025.4mb 68f 70f
6:04 1ft 9s 2 4 mph 1024.7mb 68f 68f
5:04 1ft 8s 2
mph
1024.4mb 68f 68f
4:04 1ft 8s 2 4 mph 1024.1mb 68f 68f
3:04 1ft 8s 4
mph
1024.1mb 68f 69f
2:04 1.3ft 8s 7
mph
1024.3mb 68f 69f
1:04 1ft 8s 4 7 mph 1024.4mb 68f 69f
12:04 1ft 9s 4
mph
1024.3mb 68f 69f
Sa 08/27 11:04 1.3ft 9s 4
mph
1024mb 68f 69f
10:04 1.3ft 9s 4 7 mph 1023.7mb 68f 70f
9:04 1.3ft 10s 7
mph
1023.2mb 69f 69f
8:04 1ft 8s 2 4 mph 1022.2mb 69f 69f
7:04 1ft 8s 4 7 mph 1021.8mb 69f 69f
6:04 1ft 7s 9
mph
1021.5mb 69f 70f
5:04 1ft 8s 7 9 mph 1021.5mb 69f 71f